This is the latest recevied weather packets stored in our database for station/object W5HKR. If no packets are shown the sender has not sent any weather packets the latest 10 day(s).
| Time | Temp. | Humidity | Pressure | Rain* | Wind** | Luminosity | Snow |
|---|---|---|---|---|---|---|---|
| 1777533802 | 17.78° C | 88% | 983.1 hPa | 0 mm | - | - | - |
| 1777533502 | 17.78° C | 88% | 983.2 hPa | 0 mm | - | - | - |
| 1777533202 | 17.78° C | 88% | 984 hPa | 0 mm | - | - | - |
| 1777533034 | 17.78° C | 88% | 983.7 hPa | 0 mm | - | - | - |
| 1777532903 | 18.33° C | 91% | 990.6 hPa | 0 mm | - | - | - |
| 1777532603 | 18.33° C | 91% | 990.6 hPa | 0 mm | - | - | - |
| 1777532003 | 18.33° C | 91% | 990.6 hPa | 0 mm | - | - | - |
| 1777531955 | 18.33° C | 91% | 990.6 hPa | 0 mm | - | - | - |
| 1777531404 | 18.33° C | 87% | 984.8 hPa | 0 mm | - | - | - |
| 1777531103 | 18.33° C | 91% | 990.6 hPa | 0 mm | - | - | - |
| 1777530874 | 18.33° C | 87% | 984.8 hPa | 0 mm | - | - | - |
| 1777530803 | 18.33° C | 91% | 990.6 hPa | 0 mm | - | - | - |
| 1777530503 | 18.33° C | 87% | 984.5 hPa | 0 mm | - | - | - |
| 1777530203 | 18.33° C | 87% | 984.8 hPa | 0 mm | - | - | - |
| 1777529906 | 18.33° C | 87% | 983.7 hPa | 0 mm | - | - | - |
| 1777529795 | 18.33° C | 91% | 990.6 hPa | 0 mm | - | - | - |
| 1777529602 | 18.33° C | 91% | 990.6 hPa | 0 mm | - | - | - |
| 1777529303 | 18.33° C | 87% | 985.1 hPa | 0 mm | - | - | - |
| 1777529004 | 18.33° C | 91% | 990.6 hPa | 0 mm | - | - | - |
| 1777528705 | 18.33° C | 87% | 983.6 hPa | 0 mm | - | - | - |
| 1777528405 | 18.33° C | 91% | 990.6 hPa | 0 mm | - | - | - |
| 1777528102 | 18.89° C | 86% | 983.7 hPa | 0 mm | - | - | - |
| 1777527803 | 18.89° C | 87% | 984.4 hPa | 0 mm | - | - | - |
| 1777527634 | 18.89° C | 87% | 983.9 hPa | 0 mm | - | - | - |
| 1777527503 | 18.33° C | 91% | 990.6 hPa | 0 mm | - | - | - |
* Rain latest hour (hover to see other rain measurements)
** Current wind speed in m/s (hover to see current wind gust speed)